sensor_id;sensor_type;location;lat;lon;timestamp;P1;durP1;ratioP1;P2;durP2;ratioP2
9248;SDS011;4660;41.768;26.198;2022-09-13T00:01:22;6.10;;;5.50;;
9248;SDS011;4660;41.768;26.198;2022-09-13T00:03:47;5.38;;;4.88;;
9248;SDS011;4660;41.768;26.198;2022-09-13T00:06:15;5.80;;;5.30;;
9248;SDS011;4660;41.768;26.198;2022-09-13T00:08:43;11.10;;;5.63;;
9248;SDS011;4660;41.768;26.198;2022-09-13T00:11:18;5.70;;;5.20;;
9248;SDS011;4660;41.768;26.198;2022-09-13T00:13:49;5.93;;;5.07;;
9248;SDS011;4660;41.768;26.198;2022-09-13T00:16:16;5.80;;;5.33;;
9248;SDS011;4660;41.768;26.198;2022-09-13T00:18:43;5.30;;;4.80;;
9248;SDS011;4660;41.768;26.198;2022-09-13T00:21:12;5.07;;;4.67;;
9248;SDS011;4660;41.768;26.198;2022-09-13T00:23:42;5.93;;;5.20;;
9248;SDS011;4660;41.768;26.198;2022-09-13T00:26:13;5.65;;;5.15;;
9248;SDS011;4660;41.768;26.198;2022-09-13T00:28:43;6.23;;;5.63;;
9248;SDS011;4660;41.768;26.198;2022-09-13T00:31:12;5.53;;;5.10;;
9248;SDS011;4660;41.768;26.198;2022-09-13T00:33:38;5.57;;;5.07;;
9248;SDS011;4660;41.768;26.198;2022-09-13T00:36:04;6.43;;;5.93;;
9248;SDS011;4660;41.768;26.198;2022-09-13T00:38:34;6.17;;;5.43;;
9248;SDS011;4660;41.768;26.198;2022-09-13T00:41:02;6.17;;;5.47;;
9248;SDS011;4660;41.768;26.198;2022-09-13T00:46:22;6.37;;;5.87;;
9248;SDS011;4660;41.768;26.198;2022-09-13T00:49:02;6.90;;;6.20;;
9248;SDS011;4660;41.768;26.198;2022-09-13T00:51:50;6.30;;;5.70;;
9248;SDS011;4660;41.768;26.198;2022-09-13T00:54:22;5.53;;;5.13;;
9248;SDS011;4660;41.768;26.198;2022-09-13T00:56:53;6.50;;;5.90;;
9248;SDS011;4660;41.768;26.198;2022-09-13T00:59:34;7.00;;;6.40;;
9248;SDS011;4660;41.768;26.198;2022-09-13T01:02:04;6.50;;;5.87;;
9248;SDS011;4660;41.768;26.198;2022-09-13T01:04:31;6.53;;;5.93;;
9248;SDS011;4660;41.768;26.198;2022-09-13T01:07:02;6.30;;;5.80;;
9248;SDS011;4660;41.768;26.198;2022-09-13T01:09:31;6.37;;;5.80;;
9248;SDS011;4660;41.768;26.198;2022-09-13T01:12:05;6.40;;;5.90;;
9248;SDS011;4660;41.768;26.198;2022-09-13T01:14:52;6.60;;;6.00;;
9248;SDS011;4660;41.768;26.198;2022-09-13T01:17:21;7.03;;;6.33;;
9248;SDS011;4660;41.768;26.198;2022-09-13T01:19:47;8.17;;;5.73;;
9248;SDS011;4660;41.768;26.198;2022-09-13T01:25:25;6.33;;;5.50;;
9248;SDS011;4660;41.768;26.198;2022-09-13T01:30:36;7.30;;;6.70;;
9248;SDS011;4660;41.768;26.198;2022-09-13T01:49:45;7.20;;;6.50;;
9248;SDS011;4660;41.768;26.198;2022-09-13T01:52:34;8.57;;;6.83;;
9248;SDS011;4660;41.768;26.198;2022-09-13T01:58:01;7.43;;;6.83;;
9248;SDS011;4660;41.768;26.198;2022-09-13T02:00:36;7.07;;;6.40;;
9248;SDS011;4660;41.768;26.198;2022-09-13T02:03:24;8.00;;;6.87;;
9248;SDS011;4660;41.768;26.198;2022-09-13T02:06:17;6.83;;;6.23;;
9248;SDS011;4660;41.768;26.198;2022-09-13T02:08:47;6.97;;;6.23;;
9248;SDS011;4660;41.768;26.198;2022-09-13T02:11:17;7.40;;;6.77;;
9248;SDS011;4660;41.768;26.198;2022-09-13T02:13:48;7.57;;;6.97;;
9248;SDS011;4660;41.768;26.198;2022-09-13T02:16:24;7.60;;;6.90;;
9248;SDS011;4660;41.768;26.198;2022-09-13T02:18:54;7.20;;;6.60;;
9248;SDS011;4660;41.768;26.198;2022-09-13T02:21:26;7.20;;;6.43;;
9248;SDS011;4660;41.768;26.198;2022-09-13T02:24:02;7.30;;;6.70;;
9248;SDS011;4660;41.768;26.198;2022-09-13T02:26:32;7.47;;;6.77;;
9248;SDS011;4660;41.768;26.198;2022-09-13T02:29:00;7.57;;;6.97;;
9248;SDS011;4660;41.768;26.198;2022-09-13T02:31:35;8.53;;;6.37;;
9248;SDS011;4660;41.768;26.198;2022-09-13T02:34:07;6.97;;;6.40;;
9248;SDS011;4660;41.768;26.198;2022-09-13T02:36:39;7.03;;;6.43;;
9248;SDS011;4660;41.768;26.198;2022-09-13T02:39:13;7.00;;;6.30;;
9248;SDS011;4660;41.768;26.198;2022-09-13T02:41:56;7.73;;;7.03;;
9248;SDS011;4660;41.768;26.198;2022-09-13T02:44:36;7.20;;;6.63;;
9248;SDS011;4660;41.768;26.198;2022-09-13T02:47:17;7.30;;;6.70;;
9248;SDS011;4660;41.768;26.198;2022-09-13T02:53:01;8.07;;;7.27;;
9248;SDS011;4660;41.768;26.198;2022-09-13T02:56:19;7.40;;;6.80;;
9248;SDS011;4660;41.768;26.198;2022-09-13T03:01:27;7.23;;;6.60;;
9248;SDS011;4660;41.768;26.198;2022-09-13T03:03:53;7.73;;;7.13;;
9248;SDS011;4660;41.768;26.198;2022-09-13T03:06:26;7.10;;;6.50;;
9248;SDS011;4660;41.768;26.198;2022-09-13T03:08:53;7.30;;;6.70;;
9248;SDS011;4660;41.768;26.198;2022-09-13T03:19:21;7.17;;;6.57;;
9248;SDS011;4660;41.768;26.198;2022-09-13T03:24:51;8.73;;;8.00;;
9248;SDS011;4660;41.768;26.198;2022-09-13T03:30:28;8.63;;;7.93;;
9248;SDS011;4660;41.768;26.198;2022-09-13T03:33:15;8.87;;;8.17;;
9248;SDS011;4660;41.768;26.198;2022-09-13T03:38:28;8.53;;;7.83;;
9248;SDS011;4660;41.768;26.198;2022-09-13T03:41:00;9.57;;;7.77;;
9248;SDS011;4660;41.768;26.198;2022-09-13T03:43:35;8.97;;;8.10;;
9248;SDS011;4660;41.768;26.198;2022-09-13T03:46:10;8.67;;;7.93;;
9248;SDS011;4660;41.768;26.198;2022-09-13T03:48:49;8.07;;;7.37;;
9248;SDS011;4660;41.768;26.198;2022-09-13T03:51:16;7.77;;;7.17;;
9248;SDS011;4660;41.768;26.198;2022-09-13T03:53:45;8.50;;;7.67;;
9248;SDS011;4660;41.768;26.198;2022-09-13T03:56:18;8.57;;;7.87;;
9248;SDS011;4660;41.768;26.198;2022-09-13T03:58:44;8.97;;;7.50;;
9248;SDS011;4660;41.768;26.198;2022-09-13T04:01:11;9.00;;;8.13;;
9248;SDS011;4660;41.768;26.198;2022-09-13T04:03:37;8.37;;;7.67;;
9248;SDS011;4660;41.768;26.198;2022-09-13T04:06:03;8.60;;;7.77;;
9248;SDS011;4660;41.768;26.198;2022-09-13T04:08:30;9.10;;;8.30;;
9248;SDS011;4660;41.768;26.198;2022-09-13T04:10:58;8.48;;;7.60;;
9248;SDS011;4660;41.768;26.198;2022-09-13T04:13:25;8.60;;;7.83;;
9248;SDS011;4660;41.768;26.198;2022-09-13T04:15:51;8.20;;;7.43;;
9248;SDS011;4660;41.768;26.198;2022-09-13T04:18:16;8.13;;;7.33;;
9248;SDS011;4660;41.768;26.198;2022-09-13T04:20:42;12.00;;;7.47;;
9248;SDS011;4660;41.768;26.198;2022-09-13T04:23:08;7.90;;;6.77;;
9248;SDS011;4660;41.768;26.198;2022-09-13T04:25:36;7.57;;;6.87;;
9248;SDS011;4660;41.768;26.198;2022-09-13T04:28:03;7.90;;;7.30;;
9248;SDS011;4660;41.768;26.198;2022-09-13T04:30:28;7.60;;;6.80;;
9248;SDS011;4660;41.768;26.198;2022-09-13T04:32:55;8.97;;;7.73;;
9248;SDS011;4660;41.768;26.198;2022-09-13T04:35:20;7.70;;;7.00;;
9248;SDS011;4660;41.768;26.198;2022-09-13T04:37:46;9.83;;;7.50;;
9248;SDS011;4660;41.768;26.198;2022-09-13T04:40:11;9.07;;;6.93;;
9248;SDS011;4660;41.768;26.198;2022-09-13T04:42:38;9.80;;;7.70;;
9248;SDS011;4660;41.768;26.198;2022-09-13T04:45:04;10.73;;;7.87;;
9248;SDS011;4660;41.768;26.198;2022-09-13T04:47:30;7.43;;;6.83;;
9248;SDS011;4660;41.768;26.198;2022-09-13T04:49:56;9.27;;;7.37;;
9248;SDS011;4660;41.768;26.198;2022-09-13T04:52:22;8.53;;;7.73;;
9248;SDS011;4660;41.768;26.198;2022-09-13T04:54:47;8.23;;;7.43;;
9248;SDS011;4660;41.768;26.198;2022-09-13T04:57:14;8.23;;;7.57;;
9248;SDS011;4660;41.768;26.198;2022-09-13T04:59:41;8.70;;;7.90;;
9248;SDS011;4660;41.768;26.198;2022-09-13T05:02:06;8.40;;;7.23;;
9248;SDS011;4660;41.768;26.198;2022-09-13T05:04:32;7.43;;;6.83;;
9248;SDS011;4660;41.768;26.198;2022-09-13T05:06:57;7.27;;;6.67;;
9248;SDS011;4660;41.768;26.198;2022-09-13T05:09:23;8.63;;;6.83;;
9248;SDS011;4660;41.768;26.198;2022-09-13T05:11:49;6.23;;;5.73;;
9248;SDS011;4660;41.768;26.198;2022-09-13T05:14:15;9.27;;;6.10;;
9248;SDS011;4660;41.768;26.198;2022-09-13T05:16:40;6.80;;;5.50;;
9248;SDS011;4660;41.768;26.198;2022-09-13T05:19:06;6.40;;;5.80;;
9248;SDS011;4660;41.768;26.198;2022-09-13T05:21:32;6.57;;;5.97;;
9248;SDS011;4660;41.768;26.198;2022-09-13T05:23:58;6.90;;;6.30;;
9248;SDS011;4660;41.768;26.198;2022-09-13T05:26:24;6.70;;;6.10;;
9248;SDS011;4660;41.768;26.198;2022-09-13T05:28:50;6.60;;;6.10;;
9248;SDS011;4660;41.768;26.198;2022-09-13T05:31:17;7.30;;;6.47;;
9248;SDS011;4660;41.768;26.198;2022-09-13T05:33:46;6.27;;;5.67;;
9248;SDS011;4660;41.768;26.198;2022-09-13T05:36:13;7.67;;;6.10;;
9248;SDS011;4660;41.768;26.198;2022-09-13T05:38:39;5.30;;;4.90;;
9248;SDS011;4660;41.768;26.198;2022-09-13T05:41:04;5.97;;;5.37;;
9248;SDS011;4660;41.768;26.198;2022-09-13T05:43:32;5.80;;;5.30;;
9248;SDS011;4660;41.768;26.198;2022-09-13T05:46:06;5.33;;;4.83;;
9248;SDS011;4660;41.768;26.198;2022-09-13T05:48:38;5.03;;;4.60;;
9248;SDS011;4660;41.768;26.198;2022-09-13T05:53:46;4.70;;;4.30;;
9248;SDS011;4660;41.768;26.198;2022-09-13T05:56:16;4.32;;;4.03;;
9248;SDS011;4660;41.768;26.198;2022-09-13T05:58:47;4.80;;;4.40;;
9248;SDS011;4660;41.768;26.198;2022-09-13T06:01:15;4.87;;;4.47;;
9248;SDS011;4660;41.768;26.198;2022-09-13T06:03:42;4.85;;;4.45;;
9248;SDS011;4660;41.768;26.198;2022-09-13T06:06:08;4.32;;;3.92;;
9248;SDS011;4660;41.768;26.198;2022-09-13T06:08:34;4.43;;;4.03;;
9248;SDS011;4660;41.768;26.198;2022-09-13T06:11:01;5.82;;;4.20;;
9248;SDS011;4660;41.768;26.198;2022-09-13T06:13:31;4.50;;;4.20;;
9248;SDS011;4660;41.768;26.198;2022-09-13T06:15:58;5.82;;;4.25;;
9248;SDS011;4660;41.768;26.198;2022-09-13T06:18:25;6.13;;;3.88;;
9248;SDS011;4660;41.768;26.198;2022-09-13T06:21:14;6.10;;;3.70;;
9248;SDS011;4660;41.768;26.198;2022-09-13T06:23:45;4.10;;;3.70;;
9248;SDS011;4660;41.768;26.198;2022-09-13T06:26:13;3.90;;;3.60;;
9248;SDS011;4660;41.768;26.198;2022-09-13T06:28:40;5.03;;;3.60;;
9248;SDS011;4660;41.768;26.198;2022-09-13T06:31:07;4.03;;;3.40;;
9248;SDS011;4660;41.768;26.198;2022-09-13T06:33:36;4.25;;;3.15;;
9248;SDS011;4660;41.768;26.198;2022-09-13T06:36:03;3.65;;;3.35;;
9248;SDS011;4660;41.768;26.198;2022-09-13T06:38:30;3.75;;;3.45;;
9248;SDS011;4660;41.768;26.198;2022-09-13T06:41:03;3.38;;;3.10;;
9248;SDS011;4660;41.768;26.198;2022-09-13T06:43:36;3.30;;;3.10;;
9248;SDS011;4660;41.768;26.198;2022-09-13T06:46:03;4.50;;;3.15;;
9248;SDS011;4660;41.768;26.198;2022-09-13T06:48:36;4.50;;;3.03;;
9248;SDS011;4660;41.768;26.198;2022-09-13T06:51:04;3.00;;;2.80;;
9248;SDS011;4660;41.768;26.198;2022-09-13T06:53:32;2.78;;;2.58;;
9248;SDS011;4660;41.768;26.198;2022-09-13T06:56:15;3.25;;;2.90;;
9248;SDS011;4660;41.768;26.198;2022-09-13T06:58:44;3.20;;;3.00;;
9248;SDS011;4660;41.768;26.198;2022-09-13T07:03:46;3.17;;;2.88;;
9248;SDS011;4660;41.768;26.198;2022-09-13T07:06:20;3.42;;;3.13;;
9248;SDS011;4660;41.768;26.198;2022-09-13T07:08:47;4.07;;;2.72;;
9248;SDS011;4660;41.768;26.198;2022-09-13T07:11:15;3.17;;;2.88;;
9248;SDS011;4660;41.768;26.198;2022-09-13T07:13:46;2.92;;;2.42;;
9248;SDS011;4660;41.768;26.198;2022-09-13T07:16:16;3.08;;;2.88;;
9248;SDS011;4660;41.768;26.198;2022-09-13T07:18:42;9.20;;;2.88;;
9248;SDS011;4660;41.768;26.198;2022-09-13T07:21:08;3.33;;;2.25;;
9248;SDS011;4660;41.768;26.198;2022-09-13T07:23:36;3.75;;;2.45;;
9248;SDS011;4660;41.768;26.198;2022-09-13T07:26:03;4.05;;;2.40;;
9248;SDS011;4660;41.768;26.198;2022-09-13T07:28:31;2.50;;;2.30;;
9248;SDS011;4660;41.768;26.198;2022-09-13T07:33:38;2.20;;;2.00;;
9248;SDS011;4660;41.768;26.198;2022-09-13T07:36:06;2.92;;;1.85;;
9248;SDS011;4660;41.768;26.198;2022-09-13T07:38:36;2.65;;;2.00;;
9248;SDS011;4660;41.768;26.198;2022-09-13T07:41:03;2.88;;;2.13;;
9248;SDS011;4660;41.768;26.198;2022-09-13T07:43:33;2.95;;;1.63;;
9248;SDS011;4660;41.768;26.198;2022-09-13T07:46:03;1.88;;;1.60;;
9248;SDS011;4660;41.768;26.198;2022-09-13T07:48:30;3.92;;;1.85;;
9248;SDS011;4660;41.768;26.198;2022-09-13T07:51:02;2.42;;;1.70;;
9248;SDS011;4660;41.768;26.198;2022-09-13T07:53:33;8.43;;;1.80;;
9248;SDS011;4660;41.768;26.198;2022-09-13T07:56:00;4.75;;;2.03;;
9248;SDS011;4660;41.768;26.198;2022-09-13T07:58:30;3.83;;;1.70;;
9248;SDS011;4660;41.768;26.198;2022-09-13T08:01:19;2.40;;;1.98;;
9248;SDS011;4660;41.768;26.198;2022-09-13T08:03:49;3.20;;;1.95;;
9248;SDS011;4660;41.768;26.198;2022-09-13T08:06:21;3.17;;;1.70;;
9248;SDS011;4660;41.768;26.198;2022-09-13T08:08:48;4.72;;;2.03;;
9248;SDS011;4660;41.768;26.198;2022-09-13T08:11:15;1.48;;;1.38;;
9248;SDS011;4660;41.768;26.198;2022-09-13T08:13:44;3.53;;;2.10;;
9248;SDS011;4660;41.768;26.198;2022-09-13T08:16:14;2.28;;;1.55;;
9248;SDS011;4660;41.768;26.198;2022-09-13T08:18:44;2.83;;;1.90;;
9248;SDS011;4660;41.768;26.198;2022-09-13T08:21:12;1.70;;;1.60;;
9248;SDS011;4660;41.768;26.198;2022-09-13T08:23:38;3.35;;;1.65;;
9248;SDS011;4660;41.768;26.198;2022-09-13T08:26:04;4.60;;;1.73;;
9248;SDS011;4660;41.768;26.198;2022-09-13T08:28:32;2.08;;;1.63;;
9248;SDS011;4660;41.768;26.198;2022-09-13T08:31:02;4.05;;;1.63;;
9248;SDS011;4660;41.768;26.198;2022-09-13T08:33:33;2.42;;;1.60;;
9248;SDS011;4660;41.768;26.198;2022-09-13T08:35:59;1.77;;;1.67;;
9248;SDS011;4660;41.768;26.198;2022-09-13T08:38:25;3.42;;;1.70;;
9248;SDS011;4660;41.768;26.198;2022-09-13T08:41:01;5.82;;;2.00;;
9248;SDS011;4660;41.768;26.198;2022-09-13T08:46:04;1.70;;;1.60;;
9248;SDS011;4660;41.768;26.198;2022-09-13T08:48:38;4.03;;;1.45;;
9248;SDS011;4660;41.768;26.198;2022-09-13T08:51:15;2.40;;;1.63;;
9248;SDS011;4660;41.768;26.198;2022-09-13T08:53:47;1.60;;;1.50;;
9248;SDS011;4660;41.768;26.198;2022-09-13T08:56:19;1.95;;;1.60;;
9248;SDS011;4660;41.768;26.198;2022-09-13T09:09:52;2.60;;;1.33;;
9248;SDS011;4660;41.768;26.198;2022-09-13T09:12:24;1.48;;;1.38;;
9248;SDS011;4660;41.768;26.198;2022-09-13T09:23:38;2.53;;;1.50;;
9248;SDS011;4660;41.768;26.198;2022-09-13T09:26:19;2.53;;;1.50;;
9248;SDS011;4660;41.768;26.198;2022-09-13T09:28:54;1.48;;;1.30;;
9248;SDS011;4660;41.768;26.198;2022-09-13T09:34:18;1.10;;;1.10;;
9248;SDS011;4660;41.768;26.198;2022-09-13T09:40:01;5.00;;;1.50;;
9248;SDS011;4660;41.768;26.198;2022-09-13T09:42:42;4.18;;;1.50;;
9248;SDS011;4660;41.768;26.198;2022-09-13T09:45:31;1.27;;;1.17;;
9248;SDS011;4660;41.768;26.198;2022-09-13T09:48:01;3.22;;;1.40;;
9248;SDS011;4660;41.768;26.198;2022-09-13T09:50:32;2.25;;;1.20;;
9248;SDS011;4660;41.768;26.198;2022-09-13T09:53:24;1.30;;;1.20;;
9248;SDS011;4660;41.768;26.198;2022-09-13T09:58:48;2.13;;;1.63;;
9248;SDS011;4660;41.768;26.198;2022-09-13T10:03:49;1.40;;;1.30;;
9248;SDS011;4660;41.768;26.198;2022-09-13T10:06:39;1.60;;;1.30;;
9248;SDS011;4660;41.768;26.198;2022-09-13T10:09:13;1.30;;;1.20;;
9248;SDS011;4660;41.768;26.198;2022-09-13T10:11:54;1.60;;;1.15;;
9248;SDS011;4660;41.768;26.198;2022-09-13T10:19:29;1.13;;;1.02;;
9248;SDS011;4660;41.768;26.198;2022-09-13T10:21:59;2.35;;;1.35;;
9248;SDS011;4660;41.768;26.198;2022-09-13T10:24:30;1.00;;;1.00;;
9248;SDS011;4660;41.768;26.198;2022-09-13T10:26:57;1.20;;;1.10;;
9248;SDS011;4660;41.768;26.198;2022-09-13T10:29:24;3.13;;;1.27;;
9248;SDS011;4660;41.768;26.198;2022-09-13T10:31:52;1.67;;;1.35;;
9248;SDS011;4660;41.768;26.198;2022-09-13T10:34:23;1.35;;;1.20;;
9248;SDS011;4660;41.768;26.198;2022-09-13T10:36:59;1.95;;;1.30;;
9248;SDS011;4660;41.768;26.198;2022-09-13T10:39:29;1.40;;;1.30;;
9248;SDS011;4660;41.768;26.198;2022-09-13T10:42:02;1.83;;;1.25;;
9248;SDS011;4660;41.768;26.198;2022-09-13T10:50:11;5.20;;;1.38;;
9248;SDS011;4660;41.768;26.198;2022-09-13T10:52:44;1.15;;;1.08;;
9248;SDS011;4660;41.768;26.198;2022-09-13T10:57:43;2.28;;;1.42;;
9248;SDS011;4660;41.768;26.198;2022-09-13T11:00:11;3.75;;;0.90;;
9248;SDS011;4660;41.768;26.198;2022-09-13T11:02:42;1.00;;;1.00;;
9248;SDS011;4660;41.768;26.198;2022-09-13T11:05:31;1.40;;;1.30;;
9248;SDS011;4660;41.768;26.198;2022-09-13T11:08:19;1.13;;;1.05;;
9248;SDS011;4660;41.768;26.198;2022-09-13T11:19:01;3.78;;;1.40;;
9248;SDS011;4660;41.768;26.198;2022-09-13T11:27:03;1.10;;;1.10;;
9248;SDS011;4660;41.768;26.198;2022-09-13T11:35:34;0.90;;;0.90;;
9248;SDS011;4660;41.768;26.198;2022-09-13T11:38:35;1.08;;;1.05;;
9248;SDS011;4660;41.768;26.198;2022-09-13T11:46:50;1.10;;;1.00;;
9248;SDS011;4660;41.768;26.198;2022-09-13T11:57:39;1.08;;;1.08;;
9248;SDS011;4660;41.768;26.198;2022-09-13T12:00:20;2.47;;;0.90;;
9248;SDS011;4660;41.768;26.198;2022-09-13T12:02:50;1.08;;;1.05;;
9248;SDS011;4660;41.768;26.198;2022-09-13T12:05:23;1.45;;;1.05;;
9248;SDS011;4660;41.768;26.198;2022-09-13T12:11:10;1.30;;;1.10;;
9248;SDS011;4660;41.768;26.198;2022-09-13T12:13:29;3.03;;;1.20;;
9248;SDS011;4660;41.768;26.198;2022-09-13T12:16:15;1.38;;;1.27;;
9248;SDS011;4660;41.768;26.198;2022-09-13T12:18:48;1.63;;;1.52;;
9248;SDS011;4660;41.768;26.198;2022-09-13T12:21:19;1.25;;;1.15;;
9248;SDS011;4660;41.768;26.198;2022-09-13T12:26:23;1.30;;;1.30;;
9248;SDS011;4660;41.768;26.198;2022-09-13T12:28:56;2.55;;;1.20;;
9248;SDS011;4660;41.768;26.198;2022-09-13T12:31:26;1.35;;;1.25;;
9248;SDS011;4660;41.768;26.198;2022-09-13T12:33:53;1.88;;;1.70;;
9248;SDS011;4660;41.768;26.198;2022-09-13T12:36:27;1.40;;;1.30;;
9248;SDS011;4660;41.768;26.198;2022-09-13T12:55:59;1.27;;;1.17;;
9248;SDS011;4660;41.768;26.198;2022-09-13T13:01:28;1.95;;;1.20;;
9248;SDS011;4660;41.768;26.198;2022-09-13T13:04:03;1.45;;;1.20;;
9248;SDS011;4660;41.768;26.198;2022-09-13T13:06:38;1.10;;;1.10;;
9248;SDS011;4660;41.768;26.198;2022-09-13T13:12:10;1.70;;;1.55;;
9248;SDS011;4660;41.768;26.198;2022-09-13T13:14:49;1.02;;;1.02;;
9248;SDS011;4660;41.768;26.198;2022-09-13T13:17:37;1.92;;;1.17;;
9248;SDS011;4660;41.768;26.198;2022-09-13T13:23:17;1.77;;;1.05;;
9248;SDS011;4660;41.768;26.198;2022-09-13T13:26:00;0.93;;;0.93;;
9248;SDS011;4660;41.768;26.198;2022-09-13T13:31:10;1.30;;;1.20;;
9248;SDS011;4660;41.768;26.198;2022-09-13T13:34:00;1.40;;;1.13;;
9248;SDS011;4660;41.768;26.198;2022-09-13T13:39:06;1.50;;;1.15;;
9248;SDS011;4660;41.768;26.198;2022-09-13T13:46:52;1.70;;;1.15;;
9248;SDS011;4660;41.768;26.198;2022-09-13T13:52:31;2.70;;;1.25;;
9248;SDS011;4660;41.768;26.198;2022-09-13T13:55:02;2.50;;;1.02;;
9248;SDS011;4660;41.768;26.198;2022-09-13T13:57:51;0.90;;;0.90;;
9248;SDS011;4660;41.768;26.198;2022-09-13T14:00:22;1.08;;;1.05;;
9248;SDS011;4660;41.768;26.198;2022-09-13T14:08:22;1.95;;;1.00;;
9248;SDS011;4660;41.768;26.198;2022-09-13T14:20:14;2.10;;;1.17;;
9248;SDS011;4660;41.768;26.198;2022-09-13T14:22:42;1.05;;;1.05;;
9248;SDS011;4660;41.768;26.198;2022-09-13T14:27:49;4.30;;;1.27;;
9248;SDS011;4660;41.768;26.198;2022-09-13T14:30:24;1.20;;;1.10;;
9248;SDS011;4660;41.768;26.198;2022-09-13T14:33:02;1.40;;;1.30;;
9248;SDS011;4660;41.768;26.198;2022-09-13T14:35:31;1.40;;;1.08;;
9248;SDS011;4660;41.768;26.198;2022-09-13T14:38:11;1.58;;;1.40;;
9248;SDS011;4660;41.768;26.198;2022-09-13T14:40:45;1.33;;;1.20;;
9248;SDS011;4660;41.768;26.198;2022-09-13T14:43:14;1.33;;;1.10;;
9248;SDS011;4660;41.768;26.198;2022-09-13T14:45:41;1.27;;;1.17;;
9248;SDS011;4660;41.768;26.198;2022-09-13T14:48:14;1.83;;;1.20;;
9248;SDS011;4660;41.768;26.198;2022-09-13T14:50:58;1.92;;;0.95;;
9248;SDS011;4660;41.768;26.198;2022-09-13T14:53:28;1.52;;;1.25;;
9248;SDS011;4660;41.768;26.198;2022-09-13T14:56:02;1.60;;;1.02;;
9248;SDS011;4660;41.768;26.198;2022-09-13T14:58:34;1.33;;;1.23;;
9248;SDS011;4660;41.768;26.198;2022-09-13T15:01:14;1.27;;;1.17;;
9248;SDS011;4660;41.768;26.198;2022-09-13T15:03:44;1.85;;;1.40;;
9248;SDS011;4660;41.768;26.198;2022-09-13T15:06:22;1.55;;;1.15;;
9248;SDS011;4660;41.768;26.198;2022-09-13T15:08:49;1.20;;;1.10;;
9248;SDS011;4660;41.768;26.198;2022-09-13T15:11:26;2.28;;;1.63;;
9248;SDS011;4660;41.768;26.198;2022-09-13T15:14:28;1.25;;;1.17;;
9248;SDS011;4660;41.768;26.198;2022-09-13T15:19:35;3.08;;;1.17;;
9248;SDS011;4660;41.768;26.198;2022-09-13T15:22:24;1.25;;;1.20;;
9248;SDS011;4660;41.768;26.198;2022-09-13T15:24:54;1.23;;;1.10;;
9248;SDS011;4660;41.768;26.198;2022-09-13T15:27:29;1.13;;;1.02;;
9248;SDS011;4660;41.768;26.198;2022-09-13T15:30:18;0.95;;;0.95;;
9248;SDS011;4660;41.768;26.198;2022-09-13T15:32:49;2.47;;;1.10;;
9248;SDS011;4660;41.768;26.198;2022-09-13T15:35:30;1.25;;;1.15;;
9248;SDS011;4660;41.768;26.198;2022-09-13T15:38:01;5.90;;;1.40;;
9248;SDS011;4660;41.768;26.198;2022-09-13T15:40:46;5.78;;;1.30;;
9248;SDS011;4660;41.768;26.198;2022-09-13T15:43:22;1.58;;;1.20;;
9248;SDS011;4660;41.768;26.198;2022-09-13T15:45:48;4.07;;;1.58;;
9248;SDS011;4660;41.768;26.198;2022-09-13T15:48:20;1.45;;;1.35;;
9248;SDS011;4660;41.768;26.198;2022-09-13T15:51:02;4.00;;;1.33;;
9248;SDS011;4660;41.768;26.198;2022-09-13T15:53:35;2.35;;;1.35;;
9248;SDS011;4660;41.768;26.198;2022-09-13T15:56:03;7.18;;;2.50;;
9248;SDS011;4660;41.768;26.198;2022-09-13T15:58:30;9.60;;;3.53;;
9248;SDS011;4660;41.768;26.198;2022-09-13T16:00:56;4.40;;;2.60;;
9248;SDS011;4660;41.768;26.198;2022-09-13T16:03:21;3.58;;;2.60;;
9248;SDS011;4660;41.768;26.198;2022-09-13T16:05:47;6.00;;;2.95;;
9248;SDS011;4660;41.768;26.198;2022-09-13T16:08:12;6.25;;;3.72;;
9248;SDS011;4660;41.768;26.198;2022-09-13T16:10:38;8.00;;;4.95;;
9248;SDS011;4660;41.768;26.198;2022-09-13T16:13:03;11.27;;;4.60;;
9248;SDS011;4660;41.768;26.198;2022-09-13T16:15:29;9.63;;;5.03;;
9248;SDS011;4660;41.768;26.198;2022-09-13T16:17:55;6.15;;;5.13;;
9248;SDS011;4660;41.768;26.198;2022-09-13T16:20:20;5.07;;;2.85;;
9248;SDS011;4660;41.768;26.198;2022-09-13T16:22:46;8.93;;;3.42;;
9248;SDS011;4660;41.768;26.198;2022-09-13T16:25:12;8.80;;;3.30;;
9248;SDS011;4660;41.768;26.198;2022-09-13T16:27:40;3.97;;;2.05;;
9248;SDS011;4660;41.768;26.198;2022-09-13T16:30:08;2.75;;;1.60;;
9248;SDS011;4660;41.768;26.198;2022-09-13T16:32:36;3.15;;;1.67;;
9248;SDS011;4660;41.768;26.198;2022-09-13T16:35:02;3.42;;;1.10;;
9248;SDS011;4660;41.768;26.198;2022-09-13T16:37:28;1.67;;;1.40;;
9248;SDS011;4660;41.768;26.198;2022-09-13T16:39:56;2.10;;;1.70;;
9248;SDS011;4660;41.768;26.198;2022-09-13T16:42:22;3.60;;;1.48;;
9248;SDS011;4660;41.768;26.198;2022-09-13T16:44:48;4.20;;;1.65;;
9248;SDS011;4660;41.768;26.198;2022-09-13T16:47:14;2.97;;;1.65;;
9248;SDS011;4660;41.768;26.198;2022-09-13T16:49:39;2.50;;;1.70;;
9248;SDS011;4660;41.768;26.198;2022-09-13T16:52:05;10.48;;;5.05;;
9248;SDS011;4660;41.768;26.198;2022-09-13T16:54:31;14.40;;;7.18;;
9248;SDS011;4660;41.768;26.198;2022-09-13T16:56:59;8.55;;;5.53;;
9248;SDS011;4660;41.768;26.198;2022-09-13T16:59:29;5.00;;;3.50;;
9248;SDS011;4660;41.768;26.198;2022-09-13T17:01:55;3.38;;;2.85;;
9248;SDS011;4660;41.768;26.198;2022-09-13T17:04:21;6.97;;;2.90;;
9248;SDS011;4660;41.768;26.198;2022-09-13T17:06:48;4.00;;;2.50;;
9248;SDS011;4660;41.768;26.198;2022-09-13T17:09:13;4.72;;;1.92;;
9248;SDS011;4660;41.768;26.198;2022-09-13T17:11:40;4.80;;;2.60;;
9248;SDS011;4660;41.768;26.198;2022-09-13T17:14:08;2.60;;;2.40;;
9248;SDS011;4660;41.768;26.198;2022-09-13T17:16:41;2.35;;;1.98;;
9248;SDS011;4660;41.768;26.198;2022-09-13T17:19:14;5.07;;;1.88;;
9248;SDS011;4660;41.768;26.198;2022-09-13T17:21:42;22.55;;;3.22;;
9248;SDS011;4660;41.768;26.198;2022-09-13T17:24:09;3.33;;;2.25;;
9248;SDS011;4660;41.768;26.198;2022-09-13T17:26:34;2.40;;;2.00;;
9248;SDS011;4660;41.768;26.198;2022-09-13T17:29:00;2.35;;;1.95;;
9248;SDS011;4660;41.768;26.198;2022-09-13T17:31:26;12.45;;;2.50;;
9248;SDS011;4660;41.768;26.198;2022-09-13T17:33:51;11.20;;;2.42;;
9248;SDS011;4660;41.768;26.198;2022-09-13T17:36:17;9.82;;;2.17;;
9248;SDS011;4660;41.768;26.198;2022-09-13T17:38:43;7.07;;;2.00;;
9248;SDS011;4660;41.768;26.198;2022-09-13T17:41:11;6.07;;;2.03;;
9248;SDS011;4660;41.768;26.198;2022-09-13T17:43:39;11.32;;;2.10;;
9248;SDS011;4660;41.768;26.198;2022-09-13T17:46:15;15.45;;;4.72;;
9248;SDS011;4660;41.768;26.198;2022-09-13T17:48:45;13.93;;;6.28;;
9248;SDS011;4660;41.768;26.198;2022-09-13T17:51:14;10.07;;;4.25;;
9248;SDS011;4660;41.768;26.198;2022-09-13T17:53:45;12.38;;;5.40;;
9248;SDS011;4660;41.768;26.198;2022-09-13T17:56:20;12.07;;;4.25;;
9248;SDS011;4660;41.768;26.198;2022-09-13T17:58:47;12.75;;;3.47;;
9248;SDS011;4660;41.768;26.198;2022-09-13T18:01:14;6.25;;;3.13;;
9248;SDS011;4660;41.768;26.198;2022-09-13T18:03:39;9.60;;;3.92;;
9248;SDS011;4660;41.768;26.198;2022-09-13T18:06:06;8.63;;;3.28;;
9248;SDS011;4660;41.768;26.198;2022-09-13T18:08:34;9.38;;;3.13;;
9248;SDS011;4660;41.768;26.198;2022-09-13T18:11:02;5.78;;;2.50;;
9248;SDS011;4660;41.768;26.198;2022-09-13T18:13:29;3.03;;;2.38;;
9248;SDS011;4660;41.768;26.198;2022-09-13T18:15:59;3.35;;;2.10;;
9248;SDS011;4660;41.768;26.198;2022-09-13T18:18:26;5.82;;;4.15;;
9248;SDS011;4660;41.768;26.198;2022-09-13T18:20:52;8.15;;;4.57;;
9248;SDS011;4660;41.768;26.198;2022-09-13T18:23:18;4.78;;;3.17;;
9248;SDS011;4660;41.768;26.198;2022-09-13T18:25:54;4.63;;;3.15;;
9248;SDS011;4660;41.768;26.198;2022-09-13T18:28:20;11.73;;;3.38;;
9248;SDS011;4660;41.768;26.198;2022-09-13T18:30:53;11.15;;;3.55;;
9248;SDS011;4660;41.768;26.198;2022-09-13T18:33:20;5.80;;;3.05;;
9248;SDS011;4660;41.768;26.198;2022-09-13T18:38:31;3.50;;;2.72;;
9248;SDS011;4660;41.768;26.198;2022-09-13T18:41:00;9.48;;;3.00;;
9248;SDS011;4660;41.768;26.198;2022-09-13T18:43:28;8.63;;;2.53;;
9248;SDS011;4660;41.768;26.198;2022-09-13T18:45:54;3.55;;;2.13;;
9248;SDS011;4660;41.768;26.198;2022-09-13T18:48:21;3.83;;;2.00;;
9248;SDS011;4660;41.768;26.198;2022-09-13T18:50:46;4.90;;;2.10;;